sensor_id;sensor_type;location;lat;lon;timestamp;P1;durP1;ratioP1;P2;durP2;ratioP2
28653;SDS011;24320;56.980;24.336;2022-12-18T00:01:25;53.65;;;14.95;;
28653;SDS011;24320;56.980;24.336;2022-12-18T00:03:55;35.25;;;9.93;;
28653;SDS011;24320;56.980;24.336;2022-12-18T00:06:23;33.45;;;10.00;;
28653;SDS011;24320;56.980;24.336;2022-12-18T00:08:51;20.65;;;8.65;;
28653;SDS011;24320;56.980;24.336;2022-12-18T00:11:20;34.78;;;9.75;;
28653;SDS011;24320;56.980;24.336;2022-12-18T00:13:49;39.85;;;12.73;;
28653;SDS011;24320;56.980;24.336;2022-12-18T00:16:20;30.65;;;11.63;;
28653;SDS011;24320;56.980;24.336;2022-12-18T00:18:52;57.20;;;11.80;;
28653;SDS011;24320;56.980;24.336;2022-12-18T00:21:21;46.83;;;11.95;;
28653;SDS011;24320;56.980;24.336;2022-12-18T00:23:48;38.05;;;11.98;;
28653;SDS011;24320;56.980;24.336;2022-12-18T00:26:20;49.15;;;11.57;;
28653;SDS011;24320;56.980;24.336;2022-12-18T00:28:58;30.05;;;11.60;;
28653;SDS011;24320;56.980;24.336;2022-12-18T00:31:26;33.92;;;12.52;;
28653;SDS011;24320;56.980;24.336;2022-12-18T00:33:57;49.53;;;14.38;;
28653;SDS011;24320;56.980;24.336;2022-12-18T00:36:25;40.20;;;11.70;;
28653;SDS011;24320;56.980;24.336;2022-12-18T00:38:54;38.85;;;12.45;;
28653;SDS011;24320;56.980;24.336;2022-12-18T00:41:22;45.95;;;14.82;;
28653;SDS011;24320;56.980;24.336;2022-12-18T00:44:09;48.08;;;13.55;;
28653;SDS011;24320;56.980;24.336;2022-12-18T00:46:38;41.03;;;12.90;;
28653;SDS011;24320;56.980;24.336;2022-12-18T00:49:06;53.20;;;15.45;;
28653;SDS011;24320;56.980;24.336;2022-12-18T00:51:33;53.08;;;14.27;;
28653;SDS011;24320;56.980;24.336;2022-12-18T00:54:00;38.40;;;14.75;;
28653;SDS011;24320;56.980;24.336;2022-12-18T00:56:27;40.13;;;13.25;;
28653;SDS011;24320;56.980;24.336;2022-12-18T00:58:54;39.15;;;14.63;;
28653;SDS011;24320;56.980;24.336;2022-12-18T01:01:21;50.33;;;16.35;;
28653;SDS011;24320;56.980;24.336;2022-12-18T01:03:48;38.10;;;12.25;;
28653;SDS011;24320;56.980;24.336;2022-12-18T01:06:15;44.50;;;14.77;;
28653;SDS011;24320;56.980;24.336;2022-12-18T01:08:42;56.88;;;15.52;;
28653;SDS011;24320;56.980;24.336;2022-12-18T01:11:11;46.85;;;15.68;;
28653;SDS011;24320;56.980;24.336;2022-12-18T01:13:40;49.17;;;15.73;;
28653;SDS011;24320;56.980;24.336;2022-12-18T01:16:07;46.75;;;12.45;;
28653;SDS011;24320;56.980;24.336;2022-12-18T01:18:37;33.80;;;14.13;;
28653;SDS011;24320;56.980;24.336;2022-12-18T01:21:07;53.00;;;14.57;;
28653;SDS011;24320;56.980;24.336;2022-12-18T01:23:39;44.22;;;14.30;;
28653;SDS011;24320;56.980;24.336;2022-12-18T01:26:07;43.03;;;12.45;;
28653;SDS011;24320;56.980;24.336;2022-12-18T01:28:36;46.65;;;12.68;;
28653;SDS011;24320;56.980;24.336;2022-12-18T01:31:25;38.33;;;12.15;;
28653;SDS011;24320;56.980;24.336;2022-12-18T01:33:54;43.42;;;11.82;;
28653;SDS011;24320;56.980;24.336;2022-12-18T01:36:26;41.30;;;13.02;;
28653;SDS011;24320;56.980;24.336;2022-12-18T01:38:55;33.20;;;13.55;;
28653;SDS011;24320;56.980;24.336;2022-12-18T01:41:24;36.15;;;12.73;;
28653;SDS011;24320;56.980;24.336;2022-12-18T01:43:53;42.92;;;16.30;;
28653;SDS011;24320;56.980;24.336;2022-12-18T01:46:23;32.50;;;12.20;;
28653;SDS011;24320;56.980;24.336;2022-12-18T01:48:59;43.05;;;15.65;;
28653;SDS011;24320;56.980;24.336;2022-12-18T01:51:29;22.90;;;9.40;;
28653;SDS011;24320;56.980;24.336;2022-12-18T01:53:57;37.00;;;12.50;;
28653;SDS011;24320;56.980;24.336;2022-12-18T01:58:56;31.73;;;10.05;;
28653;SDS011;24320;56.980;24.336;2022-12-18T02:01:29;44.63;;;11.55;;
28653;SDS011;24320;56.980;24.336;2022-12-18T02:04:14;41.88;;;11.10;;
28653;SDS011;24320;56.980;24.336;2022-12-18T02:09:47;29.80;;;11.32;;
28653;SDS011;24320;56.980;24.336;2022-12-18T02:12:24;36.08;;;11.52;;
28653;SDS011;24320;56.980;24.336;2022-12-18T02:15:05;33.45;;;11.70;;
28653;SDS011;24320;56.980;24.336;2022-12-18T02:17:38;28.55;;;11.65;;
28653;SDS011;24320;56.980;24.336;2022-12-18T02:28:13;33.88;;;9.15;;
28653;SDS011;24320;56.980;24.336;2022-12-18T02:30:45;38.72;;;11.55;;
28653;SDS011;24320;56.980;24.336;2022-12-18T02:33:15;30.55;;;11.10;;
28653;SDS011;24320;56.980;24.336;2022-12-18T02:35:43;27.58;;;10.85;;
28653;SDS011;24320;56.980;24.336;2022-12-18T02:38:11;26.13;;;8.60;;
28653;SDS011;24320;56.980;24.336;2022-12-18T02:40:40;30.52;;;9.15;;
28653;SDS011;24320;56.980;24.336;2022-12-18T02:43:10;32.40;;;10.98;;
28653;SDS011;24320;56.980;24.336;2022-12-18T02:45:46;23.08;;;8.95;;
28653;SDS011;24320;56.980;24.336;2022-12-18T02:48:17;24.55;;;9.13;;
28653;SDS011;24320;56.980;24.336;2022-12-18T02:50:57;31.77;;;10.32;;
28653;SDS011;24320;56.980;24.336;2022-12-18T02:53:56;31.27;;;10.57;;
28653;SDS011;24320;56.980;24.336;2022-12-18T02:56:24;30.67;;;8.55;;
28653;SDS011;24320;56.980;24.336;2022-12-18T02:59:05;28.77;;;7.65;;
28653;SDS011;24320;56.980;24.336;2022-12-18T03:04:09;24.95;;;8.25;;
28653;SDS011;24320;56.980;24.336;2022-12-18T03:06:48;18.20;;;6.95;;
28653;SDS011;24320;56.980;24.336;2022-12-18T03:09:21;19.17;;;8.52;;
28653;SDS011;24320;56.980;24.336;2022-12-18T03:12:00;33.38;;;8.55;;
28653;SDS011;24320;56.980;24.336;2022-12-18T03:15:10;18.35;;;7.10;;
28653;SDS011;24320;56.980;24.336;2022-12-18T03:17:50;13.63;;;5.93;;
28653;SDS011;24320;56.980;24.336;2022-12-18T03:20:22;27.98;;;8.10;;
28653;SDS011;24320;56.980;24.336;2022-12-18T03:22:53;23.07;;;8.60;;
28653;SDS011;24320;56.980;24.336;2022-12-18T03:25:26;20.95;;;7.40;;
28653;SDS011;24320;56.980;24.336;2022-12-18T03:27:56;18.83;;;8.45;;
28653;SDS011;24320;56.980;24.336;2022-12-18T03:30:27;26.10;;;8.05;;
28653;SDS011;24320;56.980;24.336;2022-12-18T03:33:05;26.85;;;10.18;;
28653;SDS011;24320;56.980;24.336;2022-12-18T03:35:39;22.83;;;7.95;;
28653;SDS011;24320;56.980;24.336;2022-12-18T03:38:08;17.70;;;7.05;;
28653;SDS011;24320;56.980;24.336;2022-12-18T03:41:25;25.52;;;10.45;;
28653;SDS011;24320;56.980;24.336;2022-12-18T03:46:30;22.85;;;8.27;;
28653;SDS011;24320;56.980;24.336;2022-12-18T03:51:42;29.90;;;8.55;;
28653;SDS011;24320;56.980;24.336;2022-12-18T03:54:30;27.23;;;10.68;;
28653;SDS011;24320;56.980;24.336;2022-12-18T03:57:00;22.50;;;6.97;;
28653;SDS011;24320;56.980;24.336;2022-12-18T04:02:21;16.85;;;6.93;;
28653;SDS011;24320;56.980;24.336;2022-12-18T04:04:51;19.45;;;7.53;;
28653;SDS011;24320;56.980;24.336;2022-12-18T04:07:22;18.92;;;6.63;;
28653;SDS011;24320;56.980;24.336;2022-12-18T04:09:50;27.30;;;7.88;;
28653;SDS011;24320;56.980;24.336;2022-12-18T04:12:26;18.65;;;8.63;;
28653;SDS011;24320;56.980;24.336;2022-12-18T04:14:53;20.23;;;8.55;;
28653;SDS011;24320;56.980;24.336;2022-12-18T04:17:20;16.38;;;6.97;;
28653;SDS011;24320;56.980;24.336;2022-12-18T04:19:48;15.80;;;6.50;;
28653;SDS011;24320;56.980;24.336;2022-12-18T04:22:16;21.80;;;8.38;;
28653;SDS011;24320;56.980;24.336;2022-12-18T04:24:43;18.83;;;7.07;;
28653;SDS011;24320;56.980;24.336;2022-12-18T04:27:10;25.35;;;7.22;;
28653;SDS011;24320;56.980;24.336;2022-12-18T04:29:37;28.00;;;8.75;;
28653;SDS011;24320;56.980;24.336;2022-12-18T04:32:04;20.35;;;5.97;;
28653;SDS011;24320;56.980;24.336;2022-12-18T04:34:31;22.60;;;8.18;;
28653;SDS011;24320;56.980;24.336;2022-12-18T04:36:58;23.17;;;6.07;;
28653;SDS011;24320;56.980;24.336;2022-12-18T04:39:25;26.15;;;6.43;;
28653;SDS011;24320;56.980;24.336;2022-12-18T04:41:52;22.95;;;9.50;;
28653;SDS011;24320;56.980;24.336;2022-12-18T04:44:19;17.50;;;8.77;;
28653;SDS011;24320;56.980;24.336;2022-12-18T04:46:46;14.57;;;6.68;;
28653;SDS011;24320;56.980;24.336;2022-12-18T04:49:13;24.23;;;7.45;;
28653;SDS011;24320;56.980;24.336;2022-12-18T04:51:40;20.35;;;6.72;;
28653;SDS011;24320;56.980;24.336;2022-12-18T04:54:07;29.27;;;8.27;;
28653;SDS011;24320;56.980;24.336;2022-12-18T04:56:34;14.02;;;5.93;;
28653;SDS011;24320;56.980;24.336;2022-12-18T04:59:01;31.48;;;5.63;;
28653;SDS011;24320;56.980;24.336;2022-12-18T05:01:28;19.05;;;5.88;;
28653;SDS011;24320;56.980;24.336;2022-12-18T05:04:00;19.23;;;5.75;;
28653;SDS011;24320;56.980;24.336;2022-12-18T05:06:28;17.50;;;5.90;;
28653;SDS011;24320;56.980;24.336;2022-12-18T05:08:55;15.23;;;6.40;;
28653;SDS011;24320;56.980;24.336;2022-12-18T05:11:22;14.45;;;5.57;;
28653;SDS011;24320;56.980;24.336;2022-12-18T05:13:50;19.23;;;6.95;;
28653;SDS011;24320;56.980;24.336;2022-12-18T05:16:17;24.30;;;7.00;;
28653;SDS011;24320;56.980;24.336;2022-12-18T05:18:44;13.82;;;4.72;;
28653;SDS011;24320;56.980;24.336;2022-12-18T05:21:11;13.05;;;5.22;;
28653;SDS011;24320;56.980;24.336;2022-12-18T05:23:38;14.57;;;5.10;;
28653;SDS011;24320;56.980;24.336;2022-12-18T05:26:06;12.80;;;7.13;;
28653;SDS011;24320;56.980;24.336;2022-12-18T05:28:34;21.50;;;6.30;;
28653;SDS011;24320;56.980;24.336;2022-12-18T05:31:03;17.92;;;4.75;;
28653;SDS011;24320;56.980;24.336;2022-12-18T05:33:32;11.80;;;4.70;;
28653;SDS011;24320;56.980;24.336;2022-12-18T05:36:01;12.88;;;5.30;;
28653;SDS011;24320;56.980;24.336;2022-12-18T05:41:03;10.75;;;4.95;;
28653;SDS011;24320;56.980;24.336;2022-12-18T05:43:30;10.05;;;3.92;;
28653;SDS011;24320;56.980;24.336;2022-12-18T05:46:02;9.48;;;5.47;;
28653;SDS011;24320;56.980;24.336;2022-12-18T05:48:41;18.35;;;5.22;;
28653;SDS011;24320;56.980;24.336;2022-12-18T05:51:10;10.68;;;4.55;;
28653;SDS011;24320;56.980;24.336;2022-12-18T05:53:38;8.77;;;3.92;;
28653;SDS011;24320;56.980;24.336;2022-12-18T05:56:08;11.70;;;5.47;;
28653;SDS011;24320;56.980;24.336;2022-12-18T05:58:37;8.55;;;4.88;;
28653;SDS011;24320;56.980;24.336;2022-12-18T06:03:34;11.98;;;3.83;;
28653;SDS011;24320;56.980;24.336;2022-12-18T06:06:02;18.52;;;5.97;;
28653;SDS011;24320;56.980;24.336;2022-12-18T06:08:29;13.38;;;4.10;;
28653;SDS011;24320;56.980;24.336;2022-12-18T06:10:56;12.57;;;6.22;;
28653;SDS011;24320;56.980;24.336;2022-12-18T06:13:23;9.30;;;4.53;;
28653;SDS011;24320;56.980;24.336;2022-12-18T06:15:50;6.32;;;4.80;;
28653;SDS011;24320;56.980;24.336;2022-12-18T06:18:17;13.10;;;3.72;;
28653;SDS011;24320;56.980;24.336;2022-12-18T06:20:44;13.52;;;5.55;;
28653;SDS011;24320;56.980;24.336;2022-12-18T06:23:11;10.32;;;4.35;;
28653;SDS011;24320;56.980;24.336;2022-12-18T06:25:38;12.93;;;6.32;;
28653;SDS011;24320;56.980;24.336;2022-12-18T06:28:05;18.52;;;4.18;;
28653;SDS011;24320;56.980;24.336;2022-12-18T06:30:32;20.55;;;4.93;;
28653;SDS011;24320;56.980;24.336;2022-12-18T06:32:59;14.23;;;5.57;;
28653;SDS011;24320;56.980;24.336;2022-12-18T06:35:26;12.63;;;5.20;;
28653;SDS011;24320;56.980;24.336;2022-12-18T06:37:53;8.77;;;4.93;;
28653;SDS011;24320;56.980;24.336;2022-12-18T06:40:20;7.88;;;4.93;;
28653;SDS011;24320;56.980;24.336;2022-12-18T06:42:47;17.08;;;4.78;;
28653;SDS011;24320;56.980;24.336;2022-12-18T06:45:14;10.73;;;5.93;;
28653;SDS011;24320;56.980;24.336;2022-12-18T06:47:42;10.43;;;5.72;;
28653;SDS011;24320;56.980;24.336;2022-12-18T06:50:09;7.47;;;4.93;;
28653;SDS011;24320;56.980;24.336;2022-12-18T06:52:36;14.50;;;2.88;;
28653;SDS011;24320;56.980;24.336;2022-12-18T06:55:05;16.80;;;5.20;;
28653;SDS011;24320;56.980;24.336;2022-12-18T06:57:36;6.43;;;3.72;;
28653;SDS011;24320;56.980;24.336;2022-12-18T07:00:04;3.40;;;2.80;;
28653;SDS011;24320;56.980;24.336;2022-12-18T07:02:32;8.73;;;3.80;;
28653;SDS011;24320;56.980;24.336;2022-12-18T07:05:00;17.38;;;3.53;;
28653;SDS011;24320;56.980;24.336;2022-12-18T07:07:35;6.75;;;2.38;;
28653;SDS011;24320;56.980;24.336;2022-12-18T07:10:02;2.78;;;2.53;;
28653;SDS011;24320;56.980;24.336;2022-12-18T07:12:29;11.45;;;5.38;;
28653;SDS011;24320;56.980;24.336;2022-12-18T07:14:56;4.22;;;2.80;;
28653;SDS011;24320;56.980;24.336;2022-12-18T07:17:23;5.53;;;2.33;;
28653;SDS011;24320;56.980;24.336;2022-12-18T07:19:50;7.80;;;3.08;;
28653;SDS011;24320;56.980;24.336;2022-12-18T07:22:17;4.60;;;2.97;;
28653;SDS011;24320;56.980;24.336;2022-12-18T07:24:44;4.55;;;3.47;;
28653;SDS011;24320;56.980;24.336;2022-12-18T07:27:11;16.13;;;3.95;;
28653;SDS011;24320;56.980;24.336;2022-12-18T07:29:38;8.02;;;3.42;;
28653;SDS011;24320;56.980;24.336;2022-12-18T07:32:05;11.82;;;5.15;;
28653;SDS011;24320;56.980;24.336;2022-12-18T07:34:34;8.20;;;3.65;;
28653;SDS011;24320;56.980;24.336;2022-12-18T07:37:01;5.50;;;2.50;;
28653;SDS011;24320;56.980;24.336;2022-12-18T07:39:28;11.15;;;3.95;;
28653;SDS011;24320;56.980;24.336;2022-12-18T07:41:55;9.02;;;3.45;;
28653;SDS011;24320;56.980;24.336;2022-12-18T07:44:41;3.50;;;3.00;;
28653;SDS011;24320;56.980;24.336;2022-12-18T07:47:08;10.60;;;4.45;;
28653;SDS011;24320;56.980;24.336;2022-12-18T07:49:37;9.85;;;3.47;;
28653;SDS011;24320;56.980;24.336;2022-12-18T07:52:04;9.90;;;4.32;;
28653;SDS011;24320;56.980;24.336;2022-12-18T07:54:31;6.75;;;3.65;;
28653;SDS011;24320;56.980;24.336;2022-12-18T07:57:04;11.60;;;4.07;;
28653;SDS011;24320;56.980;24.336;2022-12-18T07:59:51;9.10;;;3.22;;
28653;SDS011;24320;56.980;24.336;2022-12-18T08:02:18;7.85;;;2.67;;
28653;SDS011;24320;56.980;24.336;2022-12-18T08:04:47;7.90;;;4.35;;
28653;SDS011;24320;56.980;24.336;2022-12-18T08:07:14;6.75;;;3.65;;
28653;SDS011;24320;56.980;24.336;2022-12-18T08:09:41;14.55;;;5.05;;
28653;SDS011;24320;56.980;24.336;2022-12-18T08:12:08;9.40;;;4.90;;
28653;SDS011;24320;56.980;24.336;2022-12-18T08:14:35;8.43;;;5.10;;
28653;SDS011;24320;56.980;24.336;2022-12-18T08:17:02;16.80;;;5.38;;
28653;SDS011;24320;56.980;24.336;2022-12-18T08:19:29;15.50;;;5.50;;
28653;SDS011;24320;56.980;24.336;2022-12-18T08:21:56;13.90;;;6.80;;
28653;SDS011;24320;56.980;24.336;2022-12-18T08:24:23;16.60;;;6.38;;
28653;SDS011;24320;56.980;24.336;2022-12-18T08:26:50;15.90;;;5.85;;
28653;SDS011;24320;56.980;24.336;2022-12-18T08:29:43;14.70;;;5.60;;
28653;SDS011;24320;56.980;24.336;2022-12-18T08:32:10;13.30;;;4.90;;
28653;SDS011;24320;56.980;24.336;2022-12-18T08:34:37;16.15;;;5.03;;
28653;SDS011;24320;56.980;24.336;2022-12-18T08:37:05;12.65;;;5.68;;
28653;SDS011;24320;56.980;24.336;2022-12-18T08:39:32;11.82;;;5.93;;
28653;SDS011;24320;56.980;24.336;2022-12-18T08:42:00;12.05;;;5.35;;
28653;SDS011;24320;56.980;24.336;2022-12-18T08:44:46;14.75;;;5.32;;
28653;SDS011;24320;56.980;24.336;2022-12-18T08:47:13;11.32;;;4.97;;
28653;SDS011;24320;56.980;24.336;2022-12-18T08:49:40;15.23;;;5.22;;
28653;SDS011;24320;56.980;24.336;2022-12-18T08:52:07;8.70;;;4.65;;
28653;SDS011;24320;56.980;24.336;2022-12-18T08:54:35;11.60;;;5.80;;
28653;SDS011;24320;56.980;24.336;2022-12-18T08:57:02;13.52;;;5.80;;
28653;SDS011;24320;56.980;24.336;2022-12-18T08:59:29;13.38;;;4.70;;
28653;SDS011;24320;56.980;24.336;2022-12-18T09:01:56;11.85;;;5.65;;
28653;SDS011;24320;56.980;24.336;2022-12-18T09:04:23;14.35;;;5.90;;
28653;SDS011;24320;56.980;24.336;2022-12-18T09:06:50;13.82;;;5.07;;
28653;SDS011;24320;56.980;24.336;2022-12-18T09:09:17;11.75;;;4.68;;
28653;SDS011;24320;56.980;24.336;2022-12-18T09:11:44;14.60;;;5.65;;
28653;SDS011;24320;56.980;24.336;2022-12-18T09:14:11;14.38;;;5.50;;
28653;SDS011;24320;56.980;24.336;2022-12-18T09:16:38;11.80;;;5.00;;
28653;SDS011;24320;56.980;24.336;2022-12-18T09:19:06;11.40;;;5.90;;
28653;SDS011;24320;56.980;24.336;2022-12-18T09:21:33;16.50;;;5.22;;
28653;SDS011;24320;56.980;24.336;2022-12-18T09:24:11;10.65;;;4.47;;
28653;SDS011;24320;56.980;24.336;2022-12-18T09:26:39;14.85;;;6.80;;
28653;SDS011;24320;56.980;24.336;2022-12-18T09:29:08;11.43;;;5.30;;
28653;SDS011;24320;56.980;24.336;2022-12-18T09:31:36;17.40;;;5.82;;
28653;SDS011;24320;56.980;24.336;2022-12-18T09:34:04;9.77;;;4.68;;
28653;SDS011;24320;56.980;24.336;2022-12-18T09:36:31;13.75;;;6.10;;
28653;SDS011;24320;56.980;24.336;2022-12-18T09:38:58;11.65;;;5.18;;
28653;SDS011;24320;56.980;24.336;2022-12-18T09:44:24;12.90;;;6.28;;
28653;SDS011;24320;56.980;24.336;2022-12-18T09:46:57;13.77;;;6.07;;
28653;SDS011;24320;56.980;24.336;2022-12-18T09:49:47;17.45;;;6.38;;
28653;SDS011;24320;56.980;24.336;2022-12-18T09:55:23;15.95;;;5.40;;
28653;SDS011;24320;56.980;24.336;2022-12-18T10:00:57;18.98;;;6.07;;
28653;SDS011;24320;56.980;24.336;2022-12-18T10:03:24;15.73;;;5.85;;
28653;SDS011;24320;56.980;24.336;2022-12-18T10:06:05;16.40;;;6.75;;
28653;SDS011;24320;56.980;24.336;2022-12-18T10:08:51;18.17;;;6.88;;
28653;SDS011;24320;56.980;24.336;2022-12-18T10:11:24;14.73;;;5.55;;
28653;SDS011;24320;56.980;24.336;2022-12-18T10:19:47;17.83;;;6.70;;
28653;SDS011;24320;56.980;24.336;2022-12-18T10:27:51;20.60;;;6.32;;
28653;SDS011;24320;56.980;24.336;2022-12-18T10:30:23;15.18;;;6.88;;
28653;SDS011;24320;56.980;24.336;2022-12-18T10:32:51;19.67;;;8.05;;
28653;SDS011;24320;56.980;24.336;2022-12-18T10:35:22;18.80;;;6.72;;
28653;SDS011;24320;56.980;24.336;2022-12-18T10:41:02;15.70;;;6.70;;
28653;SDS011;24320;56.980;24.336;2022-12-18T10:43:33;15.65;;;6.97;;
28653;SDS011;24320;56.980;24.336;2022-12-18T10:46:03;16.20;;;6.78;;
28653;SDS011;24320;56.980;24.336;2022-12-18T10:51:46;16.75;;;6.28;;
28653;SDS011;24320;56.980;24.336;2022-12-18T10:54:13;20.92;;;9.32;;
28653;SDS011;24320;56.980;24.336;2022-12-18T10:56:43;13.48;;;5.38;;
28653;SDS011;24320;56.980;24.336;2022-12-18T10:59:13;21.15;;;8.45;;
28653;SDS011;24320;56.980;24.336;2022-12-18T11:01:59;19.33;;;7.50;;
28653;SDS011;24320;56.980;24.336;2022-12-18T11:04:27;20.27;;;7.10;;
28653;SDS011;24320;56.980;24.336;2022-12-18T11:07:07;19.20;;;8.05;;
28653;SDS011;24320;56.980;24.336;2022-12-18T11:09:36;23.40;;;8.00;;
28653;SDS011;24320;56.980;24.336;2022-12-18T11:12:25;13.07;;;5.82;;
28653;SDS011;24320;56.980;24.336;2022-12-18T11:14:57;13.50;;;5.72;;
28653;SDS011;24320;56.980;24.336;2022-12-18T11:17:28;15.98;;;5.47;;
28653;SDS011;24320;56.980;24.336;2022-12-18T11:22:35;21.38;;;7.93;;
28653;SDS011;24320;56.980;24.336;2022-12-18T11:33:38;16.58;;;6.82;;
28653;SDS011;24320;56.980;24.336;2022-12-18T11:36:29;21.42;;;6.28;;
28653;SDS011;24320;56.980;24.336;2022-12-18T11:39:23;17.67;;;7.75;;
28653;SDS011;24320;56.980;24.336;2022-12-18T11:42:08;22.92;;;8.05;;
28653;SDS011;24320;56.980;24.336;2022-12-18T11:49:51;22.77;;;6.25;;
28653;SDS011;24320;56.980;24.336;2022-12-18T11:52:23;21.67;;;8.17;;
28653;SDS011;24320;56.980;24.336;2022-12-18T11:55:13;21.33;;;8.05;;
28653;SDS011;24320;56.980;24.336;2022-12-18T12:00:14;22.30;;;8.77;;
28653;SDS011;24320;56.980;24.336;2022-12-18T12:10:50;18.95;;;7.30;;
28653;SDS011;24320;56.980;24.336;2022-12-18T12:13:29;18.58;;;8.00;;
28653;SDS011;24320;56.980;24.336;2022-12-18T12:16:25;25.50;;;9.07;;
28653;SDS011;24320;56.980;24.336;2022-12-18T12:19:20;14.95;;;6.75;;
28653;SDS011;24320;56.980;24.336;2022-12-18T12:27:35;20.42;;;7.05;;
28653;SDS011;24320;56.980;24.336;2022-12-18T12:30:21;15.35;;;7.47;;
28653;SDS011;24320;56.980;24.336;2022-12-18T12:33:59;23.73;;;8.40;;
28653;SDS011;24320;56.980;24.336;2022-12-18T12:36:13;12.43;;;5.80;;
28653;SDS011;24320;56.980;24.336;2022-12-18T12:38:49;14.00;;;6.43;;
28653;SDS011;24320;56.980;24.336;2022-12-18T12:41:22;16.77;;;5.93;;
28653;SDS011;24320;56.980;24.336;2022-12-18T12:44:31;18.63;;;6.63;;
28653;SDS011;24320;56.980;24.336;2022-12-18T12:47:06;10.35;;;5.55;;
28653;SDS011;24320;56.980;24.336;2022-12-18T12:49:45;13.82;;;5.68;;
28653;SDS011;24320;56.980;24.336;2022-12-18T12:52:20;24.38;;;6.43;;
28653;SDS011;24320;56.980;24.336;2022-12-18T12:54:57;15.85;;;6.07;;
28653;SDS011;24320;56.980;24.336;2022-12-18T12:57:34;14.90;;;5.22;;
28653;SDS011;24320;56.980;24.336;2022-12-18T13:00:13;15.38;;;6.05;;
28653;SDS011;24320;56.980;24.336;2022-12-18T13:02:56;11.32;;;4.80;;
28653;SDS011;24320;56.980;24.336;2022-12-18T13:05:40;18.80;;;6.80;;
28653;SDS011;24320;56.980;24.336;2022-12-18T13:08:21;13.13;;;6.22;;
28653;SDS011;24320;56.980;24.336;2022-12-18T13:10:57;15.30;;;6.03;;
28653;SDS011;24320;56.980;24.336;2022-12-18T13:13:52;24.85;;;7.45;;
28653;SDS011;24320;56.980;24.336;2022-12-18T13:16:22;15.77;;;6.63;;
28653;SDS011;24320;56.980;24.336;2022-12-18T13:18:51;14.65;;;5.65;;
28653;SDS011;24320;56.980;24.336;2022-12-18T13:21:21;13.48;;;6.85;;
28653;SDS011;24320;56.980;24.336;2022-12-18T13:23:57;12.98;;;5.85;;
28653;SDS011;24320;56.980;24.336;2022-12-18T13:26:46;11.82;;;5.88;;
28653;SDS011;24320;56.980;24.336;2022-12-18T13:29:39;10.77;;;5.80;;
28653;SDS011;24320;56.980;24.336;2022-12-18T13:32:19;15.55;;;5.90;;
28653;SDS011;24320;56.980;24.336;2022-12-18T13:35:13;11.65;;;5.50;;
28653;SDS011;24320;56.980;24.336;2022-12-18T13:37:56;17.13;;;7.30;;
28653;SDS011;24320;56.980;24.336;2022-12-18T13:46:30;12.60;;;5.93;;
28653;SDS011;24320;56.980;24.336;2022-12-18T13:51:44;15.55;;;6.22;;
28653;SDS011;24320;56.980;24.336;2022-12-18T13:56:48;13.27;;;6.35;;
28653;SDS011;24320;56.980;24.336;2022-12-18T14:01:46;18.83;;;6.70;;
28653;SDS011;24320;56.980;24.336;2022-12-18T14:04:22;17.45;;;6.85;;
28653;SDS011;24320;56.980;24.336;2022-12-18T14:09:58;23.52;;;9.40;;
28653;SDS011;24320;56.980;24.336;2022-12-18T14:12:50;17.08;;;6.70;;
28653;SDS011;24320;56.980;24.336;2022-12-18T14:15:35;24.90;;;6.90;;
28653;SDS011;24320;56.980;24.336;2022-12-18T14:21:00;19.83;;;6.32;;
28653;SDS011;24320;56.980;24.336;2022-12-18T14:28:57;13.07;;;5.40;;
28653;SDS011;24320;56.980;24.336;2022-12-18T14:33:55;20.40;;;6.95;;
28653;SDS011;24320;56.980;24.336;2022-12-18T14:36:24;17.23;;;6.88;;
28653;SDS011;24320;56.980;24.336;2022-12-18T14:41:22;41.53;;;14.60;;
28653;SDS011;24320;56.980;24.336;2022-12-18T14:43:50;51.22;;;17.05;;
28653;SDS011;24320;56.980;24.336;2022-12-18T14:46:27;26.70;;;10.73;;
28653;SDS011;24320;56.980;24.336;2022-12-18T14:49:14;34.03;;;10.65;;
28653;SDS011;24320;56.980;24.336;2022-12-18T14:51:56;23.33;;;10.57;;
28653;SDS011;24320;56.980;24.336;2022-12-18T14:54:29;28.45;;;10.80;;
28653;SDS011;24320;56.980;24.336;2022-12-18T14:59:50;47.08;;;17.95;;
28653;SDS011;24320;56.980;24.336;2022-12-18T15:02:25;24.20;;;11.75;;
28653;SDS011;24320;56.980;24.336;2022-12-18T15:05:16;32.00;;;11.63;;
28653;SDS011;24320;56.980;24.336;2022-12-18T15:07:45;35.25;;;11.80;;
28653;SDS011;24320;56.980;24.336;2022-12-18T15:15:47;31.35;;;12.05;;
28653;SDS011;24320;56.980;24.336;2022-12-18T15:26:12;71.28;;;20.27;;
28653;SDS011;24320;56.980;24.336;2022-12-18T15:28:48;29.27;;;11.38;;
28653;SDS011;24320;56.980;24.336;2022-12-18T15:31:22;50.13;;;15.98;;
28653;SDS011;24320;56.980;24.336;2022-12-18T15:36:25;29.58;;;10.88;;
28653;SDS011;24320;56.980;24.336;2022-12-18T15:38:56;22.42;;;9.73;;
28653;SDS011;24320;56.980;24.336;2022-12-18T15:41:32;15.13;;;6.28;;
28653;SDS011;24320;56.980;24.336;2022-12-18T15:44:01;19.00;;;7.82;;
28653;SDS011;24320;56.980;24.336;2022-12-18T15:46:29;15.77;;;7.63;;
28653;SDS011;24320;56.980;24.336;2022-12-18T15:48:57;21.60;;;5.93;;
28653;SDS011;24320;56.980;24.336;2022-12-18T15:51:28;10.48;;;4.90;;
28653;SDS011;24320;56.980;24.336;2022-12-18T15:54:01;14.38;;;5.38;;
28653;SDS011;24320;56.980;24.336;2022-12-18T15:56:31;17.67;;;6.88;;
28653;SDS011;24320;56.980;24.336;2022-12-18T15:59:17;13.02;;;5.75;;
28653;SDS011;24320;56.980;24.336;2022-12-18T16:01:46;87.70;;;28.60;;
28653;SDS011;24320;56.980;24.336;2022-12-18T16:04:16;53.70;;;16.33;;
28653;SDS011;24320;56.980;24.336;2022-12-18T16:06:46;102.45;;;39.72;;
28653;SDS011;24320;56.980;24.336;2022-12-18T16:09:33;23.45;;;8.75;;
28653;SDS011;24320;56.980;24.336;2022-12-18T16:12:01;11.40;;;4.43;;
28653;SDS011;24320;56.980;24.336;2022-12-18T16:14:29;15.68;;;6.60;;
28653;SDS011;24320;56.980;24.336;2022-12-18T16:17:00;25.83;;;10.38;;
28653;SDS011;24320;56.980;24.336;2022-12-18T16:19:29;19.23;;;8.80;;
28653;SDS011;24320;56.980;24.336;2022-12-18T16:21:56;26.33;;;11.55;;
28653;SDS011;24320;56.980;24.336;2022-12-18T16:24:25;20.35;;;8.15;;
28653;SDS011;24320;56.980;24.336;2022-12-18T16:26:55;18.35;;;9.52;;
28653;SDS011;24320;56.980;24.336;2022-12-18T16:29:25;22.20;;;8.73;;
28653;SDS011;24320;56.980;24.336;2022-12-18T16:31:54;24.08;;;8.95;;
28653;SDS011;24320;56.980;24.336;2022-12-18T16:34:23;22.08;;;7.28;;
28653;SDS011;24320;56.980;24.336;2022-12-18T16:36:58;16.83;;;9.50;;
28653;SDS011;24320;56.980;24.336;2022-12-18T16:39:31;26.23;;;12.75;;
28653;SDS011;24320;56.980;24.336;2022-12-18T16:42:01;18.95;;;9.27;;
28653;SDS011;24320;56.980;24.336;2022-12-18T16:44:31;18.17;;;6.70;;
28653;SDS011;24320;56.980;24.336;2022-12-18T16:46:59;21.20;;;9.70;;
28653;SDS011;24320;56.980;24.336;2022-12-18T16:49:28;18.48;;;6.78;;
28653;SDS011;24320;56.980;24.336;2022-12-18T16:51:56;20.55;;;7.07;;
28653;SDS011;24320;56.980;24.336;2022-12-18T16:54:23;17.75;;;7.20;;
28653;SDS011;24320;56.980;24.336;2022-12-18T16:59:23;12.73;;;5.18;;
28653;SDS011;24320;56.980;24.336;2022-12-18T17:01:53;17.95;;;6.82;;
28653;SDS011;24320;56.980;24.336;2022-12-18T17:04:27;13.45;;;5.70;;
28653;SDS011;24320;56.980;24.336;2022-12-18T17:06:54;17.92;;;7.88;;
28653;SDS011;24320;56.980;24.336;2022-12-18T17:09:21;16.08;;;7.53;;